Ketchikan International Airport
PAKT : rendu visible

Aérodrome :











RETROUVEZ-NOUS SUR...

 
LOGIN :

S'inscrire | Disclaimer

   EN    FR    IT 

 









Légende :    VFR   VFR Marginal   IFR   IFR Intensif   IFR Très Intensif
Visi : 
Plafond : 
>= 8 km
>= 3000ft
5 à 8 km
1000 à 3000 ft
1500m à 5 km
500 à 1000 ft
800 à 1500m
200 à 500 ft
< 800m
< 200 ft
Symboles :   Orages  Brouillard  Fortes neiges  Fortes précipitations  Vent > 20 kt






- Altitude de l'aérodrome : 89 ft
- Code IATA : KTN


PAKT - Ketchikan International

DERNIER METAR :
  • 200253Z 10003KT 8SM -RA OVC027 03/02 A2965 RMK HARBOR WND VRB05KT

METARs EXPIRÉS :
  • 200153Z 15010G15KT 7SM -RA OVC024 03/02 A2968 RMK HARBOR WND 13014KT
  • 200052Z 12004KT 10SM BKN024 OVC040 04/02 A2970 RMK HARBOR WND 18007KT

TAF PAKT
Valide du 20 à 00h jusqu'au 21 à 00h UTC


192341Z 2000/2024 15011KT P6SM OVC025
FM200500 16006KT 6SM -RA BR BKN015 OVC025
FM201400 15008KT 4SM -RA BR BKN008 OVC015
FM202100 15011KT P6SM -RA BKN012 OVC025 AMD NOT SKED AFT 200600



MET'MAP, la Météo Aéronautique d'un coup d'oeil ! - Copyright ORBIFLY Décembre 2007 - Disclaimer

ORBIFLY MET'MAP TEAM :

Programmation & Développement : Alexandra Zaïnal
Sur une idée originale de : Baudouin d'Aumeries
Assistance à la programmation : Marc-Olivier Méhu
Soutien technique & logistique : Manuel Goepfert

Contact : metmap@orbifly.com




SOURCES & CREDITS :

   NOAA       Earth
Advisory